createdAt,value
2019-01-28T00:00:23.461Z,0.00
2019-01-28T00:01:23.454Z,0.00
2019-01-28T00:02:23.442Z,0.00
2019-01-28T00:03:23.461Z,0.00
2019-01-28T00:04:23.421Z,0.00
2019-01-28T00:05:23.431Z,0.00
2019-01-28T00:06:23.394Z,0.00
2019-01-28T00:07:23.384Z,0.00
2019-01-28T00:08:23.373Z,0.00
2019-01-28T00:09:23.390Z,0.00
2019-01-28T00:10:23.350Z,0.00
2019-01-28T00:11:23.351Z,0.00
2019-01-28T00:12:23.335Z,0.00
2019-01-28T00:13:23.318Z,0.00
2019-01-28T00:14:23.334Z,0.00
2019-01-28T00:15:23.295Z,0.00
2019-01-28T00:16:23.284Z,0.00
2019-01-28T00:17:23.288Z,0.00
2019-01-28T00:18:23.260Z,0.00
2019-01-28T00:19:23.275Z,0.00
2019-01-28T00:20:23.241Z,0.00
2019-01-28T00:21:23.227Z,0.00
2019-01-28T00:22:23.218Z,0.00
2019-01-28T00:23:23.210Z,0.00
2019-01-28T00:24:23.231Z,0.00
2019-01-28T00:25:23.187Z,0.00
2019-01-28T00:26:23.173Z,0.00
2019-01-28T00:27:23.166Z,0.00
2019-01-28T00:28:23.153Z,0.00
2019-01-28T00:29:23.167Z,0.00
2019-01-28T00:30:23.136Z,0.00
2019-01-28T00:31:23.119Z,0.00
2019-01-28T00:32:23.109Z,0.00
2019-01-28T00:33:23.099Z,0.00
2019-01-28T00:34:23.116Z,0.00
2019-01-28T00:35:23.079Z,0.00
2019-01-28T00:36:23.082Z,0.00
2019-01-28T00:37:23.053Z,0.00
2019-01-28T00:38:23.043Z,0.00
2019-01-28T00:39:23.057Z,0.00
2019-01-28T00:40:23.022Z,0.00
2019-01-28T00:41:23.010Z,0.00
2019-01-28T00:42:23.020Z,0.00
2019-01-28T00:43:22.991Z,0.00
2019-01-28T00:44:23.001Z,0.00
2019-01-28T00:45:22.967Z,0.00
2019-01-28T00:46:22.955Z,0.00
2019-01-28T00:47:22.945Z,0.00
2019-01-28T00:48:22.959Z,0.00
2019-01-28T00:49:22.949Z,0.00
2019-01-28T00:50:22.911Z,0.00
2019-01-28T00:51:22.902Z,0.00
2019-01-28T00:52:22.892Z,0.00
2019-01-28T00:53:22.879Z,0.00
2019-01-28T00:54:22.899Z,0.00
2019-01-28T00:55:22.859Z,0.00
2019-01-28T00:56:22.852Z,0.00
2019-01-28T00:57:22.835Z,0.00
2019-01-28T00:58:22.825Z,0.00
2019-01-28T00:59:22.839Z,0.00
2019-01-28T01:00:22.813Z,0.00
2019-01-28T01:01:22.792Z,0.00
2019-01-28T01:02:22.781Z,0.00
2019-01-28T01:03:22.770Z,0.00
2019-01-28T01:04:22.785Z,0.00
2019-01-28T01:05:22.748Z,0.00
2019-01-28T01:06:22.746Z,0.00
2019-01-28T01:07:22.726Z,0.00
2019-01-28T01:08:22.714Z,0.00
2019-01-28T01:09:22.727Z,0.00
2019-01-28T01:10:22.692Z,0.00
2019-01-28T01:11:22.682Z,0.00
2019-01-28T01:12:22.684Z,0.00
2019-01-28T01:13:22.659Z,0.00
2019-01-28T01:14:22.678Z,0.00
2019-01-28T01:15:22.637Z,0.00
2019-01-28T01:16:22.627Z,0.00
2019-01-28T01:17:22.615Z,0.00
2019-01-28T01:18:22.616Z,0.00
2019-01-28T01:19:22.618Z,0.00
2019-01-28T01:20:22.583Z,0.00
2019-01-28T01:21:22.574Z,0.00
2019-01-28T01:22:22.562Z,0.00
2019-01-28T01:23:22.552Z,0.00
2019-01-28T01:24:22.570Z,0.00
2019-01-28T01:25:22.531Z,0.00
2019-01-28T01:26:22.518Z,0.00
2019-01-28T01:27:22.507Z,0.00
2019-01-28T01:28:22.495Z,0.00
2019-01-28T01:29:22.510Z,0.00
2019-01-28T01:30:22.479Z,0.00
2019-01-28T01:31:22.466Z,0.00
2019-01-28T01:32:22.451Z,0.00
2019-01-28T01:33:22.441Z,0.00
2019-01-28T01:34:22.454Z,0.00
2019-01-28T01:35:22.419Z,0.00
2019-01-28T01:36:22.410Z,0.00
2019-01-28T01:37:22.401Z,0.00
2019-01-28T01:38:22.419Z,0.00
2019-01-28T01:39:22.400Z,0.00
2019-01-28T01:40:22.367Z,0.00
2019-01-28T01:41:22.366Z,0.00
2019-01-28T01:42:22.354Z,0.00
2019-01-28T01:43:22.355Z,0.00
2019-01-28T01:44:22.350Z,0.00
2019-01-28T01:45:22.322Z,0.00
2019-01-28T01:46:22.299Z,0.00
2019-01-28T01:47:22.290Z,0.00
2019-01-28T01:48:22.296Z,0.00
2019-01-28T01:49:22.269Z,0.00
2019-01-28T01:50:22.283Z,0.00
2019-01-28T01:51:22.248Z,0.00
2019-01-28T01:52:22.233Z,0.00
2019-01-28T01:53:22.231Z,0.00
2019-01-28T01:54:22.212Z,0.00
2019-01-28T01:55:22.228Z,0.00
2019-01-28T01:56:22.190Z,0.00
2019-01-28T01:57:22.182Z,0.00
2019-01-28T01:58:22.169Z,0.00
2019-01-28T01:59:22.166Z,0.00
2019-01-28T02:00:22.174Z,0.00
2019-01-28T02:01:22.138Z,0.00
2019-01-28T02:02:22.126Z,0.00
2019-01-28T02:03:22.120Z,0.00
2019-01-28T02:04:22.104Z,0.00
2019-01-28T02:05:22.141Z,0.00
2019-01-28T02:06:22.082Z,0.00
2019-01-28T02:07:22.075Z,0.00
2019-01-28T02:08:22.060Z,0.00
2019-01-28T02:09:22.049Z,0.00
2019-01-28T02:10:22.062Z,0.00
2019-01-28T02:11:22.041Z,0.00
2019-01-28T02:12:22.017Z,0.00
2019-01-28T02:13:22.005Z,0.00
2019-01-28T02:14:21.996Z,0.00
2019-01-28T02:15:22.009Z,0.00
2019-01-28T02:16:21.976Z,0.00
2019-01-28T02:17:21.981Z,0.00
2019-01-28T02:18:21.955Z,0.00
2019-01-28T02:19:21.942Z,0.00
2019-01-28T02:20:21.954Z,0.00
2019-01-28T02:21:21.919Z,0.00
2019-01-28T02:22:21.909Z,0.00
2019-01-28T02:23:21.905Z,0.00
2019-01-28T02:24:21.886Z,0.00
2019-01-28T02:25:21.920Z,0.00
2019-01-28T02:26:21.866Z,0.00
2019-01-28T02:27:21.853Z,0.00
2019-01-28T02:28:21.850Z,0.00
2019-01-28T02:29:21.850Z,0.00
2019-01-28T02:30:21.844Z,0.00
2019-01-28T02:31:21.815Z,0.00
2019-01-28T02:32:21.805Z,0.00
2019-01-28T02:33:21.794Z,0.00
2019-01-28T02:34:21.780Z,0.00
2019-01-28T02:35:21.804Z,0.00
2019-01-28T02:36:21.755Z,0.00
2019-01-28T02:37:21.742Z,0.00
2019-01-28T02:38:21.732Z,0.00
2019-01-28T02:39:21.721Z,0.00
2019-01-28T02:40:21.734Z,0.00
2019-01-28T02:41:21.706Z,0.00
2019-01-28T02:42:21.712Z,0.00
2019-01-28T02:43:21.678Z,0.00
2019-01-28T02:44:21.665Z,0.00
2019-01-28T02:45:21.677Z,0.00
2019-01-28T02:46:21.644Z,0.00
2019-01-28T02:47:21.636Z,0.00
2019-01-28T02:48:21.636Z,0.00
2019-01-28T02:49:21.622Z,0.00
2019-01-28T02:50:21.625Z,0.00
2019-01-28T02:51:21.587Z,0.00
2019-01-28T02:52:21.577Z,0.00
2019-01-28T02:53:21.565Z,0.00
2019-01-28T02:54:21.559Z,0.00
2019-01-28T02:55:21.584Z,0.00
2019-01-28T02:56:21.534Z,0.00
2019-01-28T02:57:21.522Z,0.00
2019-01-28T02:58:21.513Z,0.00
2019-01-28T02:59:21.505Z,0.00
2019-01-28T03:00:21.514Z,0.00
2019-01-28T03:01:21.484Z,0.00
2019-01-28T03:02:21.476Z,0.00
2019-01-28T03:03:21.458Z,0.00
2019-01-28T03:04:21.448Z,0.00
2019-01-28T03:05:21.460Z,0.00
2019-01-28T03:06:21.425Z,0.00
2019-01-28T03:07:21.415Z,0.00
2019-01-28T03:08:21.405Z,0.00
2019-01-28T03:09:21.403Z,0.00
2019-01-28T03:10:21.410Z,0.00
2019-01-28T03:11:21.371Z,0.00
2019-01-28T03:12:21.360Z,0.00
2019-01-28T03:13:21.351Z,0.00
2019-01-28T03:14:21.342Z,0.00
2019-01-28T03:15:21.367Z,0.00
2019-01-28T03:16:21.321Z,0.00
2019-01-28T03:17:21.309Z,0.00
2019-01-28T03:18:21.301Z,0.00
2019-01-28T03:19:21.293Z,0.00
2019-01-28T03:20:21.299Z,0.00
2019-01-28T03:21:21.278Z,0.00
2019-01-28T03:22:21.256Z,0.00
2019-01-28T03:23:21.244Z,0.00
2019-01-28T03:24:21.235Z,0.00
2019-01-28T03:25:21.248Z,0.00
2019-01-28T03:26:21.212Z,0.00
2019-01-28T03:27:21.208Z,0.00
2019-01-28T03:28:21.190Z,0.00
2019-01-28T03:29:21.180Z,0.00
2019-01-28T03:30:21.193Z,0.00
2019-01-28T03:31:21.160Z,0.00
2019-01-28T03:32:21.149Z,0.00
2019-01-28T03:33:21.150Z,0.00
2019-01-28T03:34:21.133Z,0.00
2019-01-28T03:35:21.154Z,0.00
2019-01-28T03:36:21.106Z,0.00
2019-01-28T03:37:21.099Z,0.00
2019-01-28T03:38:21.087Z,0.00
2019-01-28T03:39:21.080Z,0.00
2019-01-28T03:40:21.066Z,0.00
2019-01-28T03:41:21.082Z,0.00
2019-01-28T03:42:21.047Z,0.00
2019-01-28T03:43:21.032Z,0.00
2019-01-28T03:44:21.078Z,0.00
2019-01-28T03:45:21.016Z,0.00
2019-01-28T03:46:21.043Z,0.00
2019-01-28T03:47:20.990Z,0.00
2019-01-28T03:48:21.001Z,0.00
2019-01-28T03:49:20.987Z,0.00
2019-01-28T03:50:21.010Z,0.00
2019-01-28T03:51:20.988Z,0.00
2019-01-28T03:52:20.979Z,0.00
2019-01-28T03:53:20.931Z,0.00
2019-01-28T03:54:20.915Z,0.00
2019-01-28T03:55:20.948Z,0.00
2019-01-28T03:56:20.923Z,0.00
2019-01-28T03:57:20.888Z,0.00
2019-01-28T03:58:20.872Z,0.00
2019-01-28T03:59:20.891Z,0.00
2019-01-28T04:00:20.853Z,0.00
2019-01-28T04:01:20.881Z,0.00
2019-01-28T04:02:20.831Z,0.00
2019-01-28T04:03:20.823Z,0.00
2019-01-28T04:04:20.808Z,0.00
2019-01-28T04:05:20.799Z,0.00
2019-01-28T04:06:20.825Z,0.00
2019-01-28T04:07:20.784Z,0.00
2019-01-28T04:08:20.767Z,0.00
2019-01-28T04:09:20.755Z,0.00
2019-01-28T04:10:20.747Z,0.00
2019-01-28T04:11:20.802Z,0.00
2019-01-28T04:12:20.744Z,0.00
2019-01-28T04:13:20.717Z,0.00
2019-01-28T04:14:20.705Z,0.00
2019-01-28T04:15:20.692Z,0.00
2019-01-28T04:16:20.703Z,0.00
2019-01-28T04:17:20.674Z,0.00
2019-01-28T04:18:20.686Z,0.00
2019-01-28T04:19:20.651Z,0.00
2019-01-28T04:20:20.640Z,0.00
2019-01-28T04:21:20.658Z,0.00
2019-01-28T04:22:20.619Z,0.00
2019-01-28T04:23:20.611Z,0.00
2019-01-28T04:24:20.609Z,0.00
2019-01-28T04:25:20.587Z,0.00
2019-01-28T04:26:20.599Z,0.00
2019-01-28T04:27:20.565Z,0.00
2019-01-28T04:28:20.558Z,0.00
2019-01-28T04:29:20.545Z,0.00
2019-01-28T04:30:20.547Z,0.00
2019-01-28T04:31:20.547Z,0.00
2019-01-28T04:32:20.520Z,0.00
2019-01-28T04:33:20.503Z,0.00
2019-01-28T04:34:20.505Z,0.00
2019-01-28T04:35:20.480Z,0.00
2019-01-28T04:36:20.504Z,0.00
2019-01-28T04:37:20.460Z,0.00
2019-01-28T04:38:20.450Z,0.00
2019-01-28T04:39:20.441Z,0.00
2019-01-28T04:40:20.430Z,0.00
2019-01-28T04:41:20.441Z,0.00
2019-01-28T04:42:20.421Z,0.00
2019-01-28T04:43:20.397Z,0.00
2019-01-28T04:44:20.385Z,0.00
2019-01-28T04:45:20.378Z,0.00
2019-01-28T04:46:20.391Z,0.00
2019-01-28T04:47:20.355Z,0.00
2019-01-28T04:48:20.358Z,0.00
2019-01-28T04:49:20.332Z,0.00
2019-01-28T04:50:20.332Z,0.00
2019-01-28T04:51:20.339Z,0.00
2019-01-28T04:52:20.302Z,0.00
2019-01-28T04:53:20.289Z,0.00
2019-01-28T04:54:20.290Z,0.00
2019-01-28T04:55:20.275Z,0.00
2019-01-28T04:56:20.280Z,0.00
2019-01-28T04:57:20.247Z,0.00
2019-01-28T04:58:20.241Z,0.00
2019-01-28T04:59:20.229Z,0.00
2019-01-28T05:00:20.228Z,0.00
2019-01-28T05:01:20.244Z,0.00
2019-01-28T05:02:20.195Z,0.00
2019-01-28T05:03:20.182Z,0.00
2019-01-28T05:04:20.176Z,0.00
2019-01-28T05:05:20.166Z,0.00
2019-01-28T05:06:20.172Z,0.00
2019-01-28T05:07:20.146Z,0.00
2019-01-28T05:08:20.144Z,0.00
2019-01-28T05:09:20.119Z,0.00
2019-01-28T05:10:20.106Z,0.00
2019-01-28T05:11:20.123Z,0.00
2019-01-28T05:12:20.086Z,0.00
2019-01-28T05:13:20.085Z,0.00
2019-01-28T05:14:20.072Z,0.00
2019-01-28T05:15:20.071Z,0.00
2019-01-28T05:16:20.044Z,0.00
2019-01-28T05:17:20.054Z,0.00
2019-01-28T05:18:20.023Z,0.00
2019-01-28T05:19:20.021Z,0.00
2019-01-28T05:20:20.015Z,0.00
2019-01-28T05:21:19.990Z,0.00
2019-01-28T05:22:20.016Z,0.00
2019-01-28T05:23:19.968Z,0.00
2019-01-28T05:24:19.964Z,0.00
2019-01-28T05:25:19.971Z,0.00
2019-01-28T05:26:19.935Z,0.00
2019-01-28T05:27:19.945Z,0.00
2019-01-28T05:28:19.919Z,0.00
2019-01-28T05:29:19.910Z,0.00
2019-01-28T05:30:19.897Z,0.00
2019-01-28T05:31:19.891Z,0.00
2019-01-28T05:32:19.892Z,0.00
2019-01-28T05:33:19.861Z,0.00
2019-01-28T05:34:19.850Z,0.00
2019-01-28T05:35:19.841Z,0.00
2019-01-28T05:36:19.831Z,0.00
2019-01-28T05:37:19.859Z,0.00
2019-01-28T05:38:19.844Z,0.00
2019-01-28T05:39:19.801Z,0.00
2019-01-28T05:40:19.788Z,0.00
2019-01-28T05:41:19.777Z,0.00
2019-01-28T05:42:19.788Z,0.00
2019-01-28T05:43:19.765Z,0.00
2019-01-28T05:44:19.746Z,0.00
2019-01-28T05:45:19.734Z,0.00
2019-01-28T05:46:19.727Z,0.00
2019-01-28T05:47:19.736Z,0.00
2019-01-28T05:48:19.702Z,0.00
2019-01-28T05:49:19.700Z,0.00
2019-01-28T05:50:19.682Z,0.00
2019-01-28T05:51:19.670Z,0.00
2019-01-28T05:52:19.688Z,0.00
2019-01-28T05:53:19.649Z,0.00
2019-01-28T05:54:19.639Z,0.00
2019-01-28T05:55:19.694Z,0.00
2019-01-28T05:56:19.617Z,0.00
2019-01-28T05:57:19.630Z,0.00
2019-01-28T05:58:19.598Z,0.00
2019-01-28T05:59:19.585Z,0.00
2019-01-28T06:00:19.575Z,0.00
2019-01-28T06:01:19.570Z,0.00
2019-01-28T06:02:19.576Z,0.00
2019-01-28T06:03:19.552Z,0.00
2019-01-28T06:04:19.544Z,0.00
2019-01-28T06:05:19.522Z,0.00
2019-01-28T06:06:19.518Z,0.00
2019-01-28T06:07:19.536Z,0.00
2019-01-28T06:08:19.492Z,0.00
2019-01-28T06:09:19.482Z,0.00
2019-01-28T06:10:19.471Z,0.00
2019-01-28T06:11:19.460Z,0.00
2019-01-28T06:12:19.473Z,0.00
2019-01-28T06:13:19.454Z,0.00
2019-01-28T06:14:19.430Z,0.00
2019-01-28T06:15:19.419Z,0.00
2019-01-28T06:16:19.409Z,0.00
2019-01-28T06:17:19.424Z,0.00
2019-01-28T06:18:19.388Z,0.00
2019-01-28T06:19:19.382Z,0.00
2019-01-28T06:20:19.371Z,0.00
2019-01-28T06:21:19.358Z,0.00
2019-01-28T06:22:19.373Z,0.00
2019-01-28T06:23:19.336Z,0.00
2019-01-28T06:24:19.329Z,0.00
2019-01-28T06:25:19.361Z,0.00
2019-01-28T06:26:19.301Z,0.00
2019-01-28T06:27:19.315Z,0.00
2019-01-28T06:28:19.280Z,0.00
2019-01-28T06:29:19.270Z,0.00
2019-01-28T06:30:19.260Z,0.00
2019-01-28T06:31:19.253Z,0.00
2019-01-28T06:32:19.260Z,0.00
2019-01-28T06:33:19.229Z,0.00
2019-01-28T06:34:19.220Z,0.00
2019-01-28T06:35:19.212Z,0.00
2019-01-28T06:36:19.202Z,0.00
2019-01-28T06:37:19.219Z,0.00
2019-01-28T06:38:19.176Z,0.00
2019-01-28T06:39:19.166Z,0.00
2019-01-28T06:40:19.153Z,0.00
2019-01-28T06:41:19.143Z,0.00
2019-01-28T06:42:19.157Z,0.00
2019-01-28T06:43:19.131Z,0.00
2019-01-28T06:44:19.115Z,0.00
2019-01-28T06:45:19.104Z,0.00
2019-01-28T06:46:19.195Z,0.00
2019-01-28T06:47:19.105Z,0.00
2019-01-28T06:48:19.099Z,0.00
2019-01-28T06:49:19.070Z,0.00
2019-01-28T06:50:19.048Z,0.00
2019-01-28T06:51:19.050Z,0.00
2019-01-28T06:52:19.049Z,0.00
2019-01-28T06:53:19.014Z,0.00
2019-01-28T06:54:19.011Z,0.00
2019-01-28T06:55:18.998Z,0.00
2019-01-28T06:56:18.987Z,0.00
2019-01-28T06:57:19.029Z,0.00
2019-01-28T06:58:18.977Z,0.00
2019-01-28T06:59:18.992Z,0.00
2019-01-28T07:00:18.956Z,0.00
2019-01-28T07:01:18.957Z,0.00
2019-01-28T07:02:18.930Z,0.00
2019-01-28T07:03:19.633Z,0.00
2019-01-28T07:04:18.934Z,0.00
2019-01-28T07:05:18.888Z,0.00
2019-01-28T07:06:18.895Z,0.00
2019-01-28T07:07:18.890Z,0.00
2019-01-28T07:08:18.883Z,0.00
2019-01-28T07:09:18.851Z,0.00
2019-01-28T07:10:18.833Z,0.00
2019-01-28T07:11:18.829Z,0.00
2019-01-28T07:12:18.817Z,0.00
2019-01-28T07:13:18.862Z,0.00
2019-01-28T07:14:18.864Z,0.00
2019-01-28T07:15:18.788Z,0.00
2019-01-28T07:16:18.779Z,0.00
2019-01-28T07:17:18.759Z,0.00
2019-01-28T07:18:18.799Z,0.00
2019-01-28T07:19:18.739Z,0.00
2019-01-28T07:20:18.740Z,5.62
2019-01-28T07:21:18.721Z,5.62
2019-01-28T07:22:18.706Z,5.62
2019-01-28T07:23:18.719Z,5.62
2019-01-28T07:24:18.701Z,5.62
2019-01-28T07:25:18.707Z,5.62
2019-01-28T07:26:18.727Z,5.62
2019-01-28T07:27:18.672Z,5.62
2019-01-28T07:28:18.781Z,5.62
2019-01-28T07:29:18.636Z,5.62
2019-01-28T07:30:18.624Z,5.62
2019-01-28T07:31:18.611Z,5.62
2019-01-28T07:32:18.626Z,5.62
2019-01-28T07:33:18.669Z,11.25
2019-01-28T07:34:18.638Z,11.25
2019-01-28T07:35:18.614Z,11.25
2019-01-28T07:36:18.575Z,11.25
2019-01-28T07:37:18.605Z,11.25
2019-01-28T07:38:18.682Z,11.25
2019-01-28T07:39:19.586Z,16.88
2019-01-28T07:40:18.558Z,16.88
2019-01-28T07:41:18.543Z,16.88
2019-01-28T07:42:18.562Z,16.88
2019-01-28T07:43:18.587Z,16.88
2019-01-28T07:44:18.541Z,16.88
2019-01-28T07:45:18.530Z,22.50
2019-01-28T07:46:18.525Z,22.50
2019-01-28T07:47:18.462Z,22.50
2019-01-28T07:48:19.127Z,22.50
2019-01-28T07:49:18.471Z,22.50
2019-01-28T07:50:18.471Z,22.50
2019-01-28T07:51:18.416Z,22.50
2019-01-28T07:52:18.809Z,22.50
2019-01-28T07:53:18.488Z,22.50
2019-01-28T07:54:18.394Z,28.12
2019-01-28T07:55:18.387Z,28.12
2019-01-28T07:56:18.409Z,33.75
2019-01-28T07:57:21.095Z,33.75
2019-01-28T07:58:19.118Z,45.00
2019-01-28T07:59:18.385Z,39.38
2019-01-28T08:00:19.553Z,39.38
2019-01-28T08:01:18.362Z,39.38
2019-01-28T08:02:18.328Z,45.00
2019-01-28T08:03:19.148Z,45.00
2019-01-28T08:04:19.157Z,45.00
2019-01-28T08:05:18.364Z,39.38
2019-01-28T08:06:18.321Z,33.75
2019-01-28T08:07:18.314Z,33.75
2019-01-28T08:08:18.318Z,33.75
2019-01-28T08:09:18.251Z,33.75
2019-01-28T08:10:19.146Z,39.38
2019-01-28T08:11:19.267Z,39.38
2019-01-28T08:12:18.226Z,39.38
2019-01-28T08:13:18.337Z,39.38
2019-01-28T08:14:20.148Z,39.38
2019-01-28T08:15:18.226Z,45.00
2019-01-28T08:16:19.163Z,45.00
2019-01-28T08:17:18.188Z,45.00
2019-01-28T08:18:18.690Z,45.00
2019-01-28T08:19:20.152Z,45.00
2019-01-28T08:20:19.109Z,45.00
2019-01-28T08:21:18.156Z,45.00
2019-01-28T08:22:18.113Z,45.00
2019-01-28T08:23:18.212Z,45.00
2019-01-28T08:24:18.112Z,50.62
2019-01-28T08:25:18.095Z,50.62
2019-01-28T08:26:18.090Z,56.25
2019-01-28T08:27:18.065Z,61.88
2019-01-28T08:28:18.074Z,56.25
2019-01-28T08:29:18.022Z,50.62
2019-01-28T08:30:18.034Z,61.88
2019-01-28T08:31:18.002Z,56.25
2019-01-28T08:32:18.028Z,56.25
2019-01-28T08:33:18.097Z,50.62
2019-01-28T08:34:17.969Z,45.00
2019-01-28T08:35:18.004Z,45.00
2019-01-28T08:36:18.036Z,45.00
2019-01-28T08:37:17.952Z,50.62
2019-01-28T08:38:18.025Z,56.25
2019-01-28T08:39:20.641Z,56.25
2019-01-28T08:40:17.948Z,56.25
2019-01-28T08:41:17.923Z,56.25
2019-01-28T08:42:17.901Z,56.25
2019-01-28T08:43:18.169Z,50.62
2019-01-28T08:44:17.988Z,45.00
2019-01-28T08:45:17.856Z,45.00
2019-01-28T08:46:17.893Z,45.00
2019-01-28T08:47:17.796Z,45.00
2019-01-28T08:48:18.335Z,45.00
2019-01-28T08:49:17.830Z,45.00
2019-01-28T08:50:17.763Z,45.00
2019-01-28T08:51:19.402Z,56.25
2019-01-28T08:52:17.761Z,67.50
2019-01-28T08:53:17.742Z,73.12
2019-01-28T08:54:17.849Z,67.50
2019-01-28T08:55:17.738Z,67.50
2019-01-28T08:56:17.744Z,78.75
2019-01-28T08:57:17.756Z,78.75
2019-01-28T08:58:17.826Z,84.38
2019-01-28T08:59:17.743Z,84.38
2019-01-28T09:00:17.724Z,84.38
2019-01-28T09:01:17.746Z,90.00
2019-01-28T09:02:17.642Z,101.25
2019-01-28T09:03:17.687Z,101.25
2019-01-28T09:04:17.635Z,101.25
2019-01-28T09:05:17.612Z,90.00
2019-01-28T09:06:17.728Z,84.38
2019-01-28T09:07:17.668Z,84.38
2019-01-28T09:08:19.039Z,95.62
2019-01-28T09:09:17.709Z,95.62
2019-01-28T09:10:17.572Z,95.62
2019-01-28T09:11:17.601Z,95.62
2019-01-28T09:12:17.565Z,106.88
2019-01-28T09:13:17.519Z,106.88
2019-01-28T09:14:17.646Z,101.25
2019-01-28T09:15:17.543Z,101.25
2019-01-28T09:16:17.533Z,95.62
2019-01-28T09:17:17.535Z,95.62
2019-01-28T09:18:25.988Z,90.00
2019-01-28T09:19:18.491Z,95.62
2019-01-28T09:20:17.537Z,90.00
2019-01-28T09:21:17.455Z,90.00
2019-01-28T09:22:17.476Z,90.00
2019-01-28T09:23:19.129Z,90.00
2019-01-28T09:24:17.514Z,95.62
2019-01-28T09:25:17.449Z,101.25
2019-01-28T09:26:17.412Z,101.25
2019-01-28T09:27:17.407Z,95.62
2019-01-28T09:28:17.397Z,90.00
2019-01-28T09:29:17.422Z,90.00
2019-01-28T09:30:17.360Z,90.00
2019-01-28T09:31:17.342Z,84.38
2019-01-28T09:32:17.420Z,90.00
2019-01-28T09:33:17.332Z,78.75
2019-01-28T09:34:17.363Z,78.75
2019-01-28T09:35:17.293Z,78.75
2019-01-28T09:36:17.296Z,84.38
2019-01-28T09:37:17.382Z,90.00
2019-01-28T09:38:17.265Z,106.88
2019-01-28T09:39:17.326Z,106.88
2019-01-28T09:40:18.128Z,106.88
2019-01-28T09:41:18.159Z,129.38
2019-01-28T09:42:17.277Z,151.88
2019-01-28T09:43:17.276Z,174.38
2019-01-28T09:44:17.343Z,168.75
2019-01-28T09:45:17.219Z,157.50
2019-01-28T09:46:17.206Z,157.50
2019-01-28T09:47:17.181Z,140.62
2019-01-28T09:48:17.274Z,146.25
2019-01-28T09:49:17.253Z,135.00
2019-01-28T09:50:17.177Z,135.00
2019-01-28T09:51:17.141Z,140.62
2019-01-28T09:52:17.104Z,129.38
2019-01-28T09:53:17.128Z,129.38
2019-01-28T09:54:17.178Z,118.12
2019-01-28T09:55:17.107Z,106.88
2019-01-28T09:56:17.163Z,106.88
2019-01-28T09:57:17.110Z,106.88
2019-01-28T09:58:17.081Z,106.88
2019-01-28T09:59:17.086Z,101.25
2019-01-28T10:00:17.038Z,123.75
2019-01-28T10:01:17.004Z,112.50
2019-01-28T10:02:17.029Z,112.50
2019-01-28T10:03:16.958Z,112.50
2019-01-28T10:04:17.129Z,101.25
2019-01-28T10:05:17.012Z,95.62
2019-01-28T10:06:17.080Z,101.25
2019-01-28T10:07:16.945Z,101.25
2019-01-28T10:08:16.983Z,118.12
2019-01-28T10:09:16.957Z,118.12
2019-01-28T10:10:16.890Z,118.12
2019-01-28T10:11:16.871Z,118.12
2019-01-28T10:12:16.866Z,118.12
2019-01-28T10:13:16.858Z,118.12
2019-01-28T10:14:16.914Z,123.75
2019-01-28T10:15:16.862Z,135.00
2019-01-28T10:16:16.817Z,135.00
2019-01-28T10:17:16.809Z,129.38
2019-01-28T10:18:16.798Z,129.38
2019-01-28T10:19:16.964Z,135.00
2019-01-28T10:20:16.785Z,140.62
2019-01-28T10:21:16.772Z,129.38
2019-01-28T10:22:16.771Z,118.12
2019-01-28T10:23:16.738Z,112.50
2019-01-28T10:24:16.763Z,112.50
2019-01-28T10:25:16.718Z,106.88
2019-01-28T10:26:16.707Z,106.88
2019-01-28T10:27:16.717Z,112.50
2019-01-28T10:28:16.691Z,123.75
2019-01-28T10:29:16.675Z,135.00
2019-01-28T10:30:16.685Z,135.00
2019-01-28T10:31:16.652Z,146.25
2019-01-28T10:32:16.644Z,185.62
2019-01-28T10:33:16.636Z,236.25
2019-01-28T10:34:16.627Z,247.50
2019-01-28T10:35:16.629Z,247.50
2019-01-28T10:36:16.619Z,236.25
2019-01-28T10:37:16.591Z,202.50
2019-01-28T10:38:16.573Z,191.25
2019-01-28T10:39:16.569Z,191.25
2019-01-28T10:40:16.591Z,180.00
2019-01-28T10:41:16.542Z,202.50
2019-01-28T10:42:16.529Z,180.00
2019-01-28T10:43:16.518Z,163.12
2019-01-28T10:44:16.508Z,129.38
2019-01-28T10:45:16.519Z,129.38
2019-01-28T10:46:16.494Z,123.75
2019-01-28T10:47:16.479Z,118.12
2019-01-28T10:48:16.463Z,106.88
2019-01-28T10:49:16.453Z,118.12
2019-01-28T10:50:16.466Z,129.38
2019-01-28T10:51:16.435Z,135.00
2019-01-28T10:52:16.421Z,135.00
2019-01-28T10:53:16.415Z,129.38
2019-01-28T10:54:16.398Z,129.38
2019-01-28T10:55:16.408Z,135.00
2019-01-28T10:56:16.375Z,140.62
2019-01-28T10:57:16.364Z,157.50
2019-01-28T10:58:16.360Z,191.25
2019-01-28T10:59:16.344Z,202.50
2019-01-28T11:00:16.357Z,202.50
2019-01-28T11:01:16.322Z,168.75
2019-01-28T11:02:16.554Z,163.12
2019-01-28T11:03:16.303Z,146.25
2019-01-28T11:04:16.288Z,140.62
2019-01-28T11:05:16.351Z,135.00
2019-01-28T11:06:16.266Z,135.00
2019-01-28T11:07:16.271Z,140.62
2019-01-28T11:08:16.263Z,140.62
2019-01-28T11:09:17.069Z,146.25
2019-01-28T11:10:16.343Z,151.88
2019-01-28T11:11:16.238Z,146.25
2019-01-28T11:12:17.165Z,135.00
2019-01-28T11:13:16.350Z,129.38
2019-01-28T11:14:16.303Z,146.25
2019-01-28T11:15:16.341Z,163.12
2019-01-28T11:16:16.275Z,168.75
2019-01-28T11:17:16.284Z,174.38
2019-01-28T11:18:16.224Z,191.25
2019-01-28T11:19:16.164Z,174.38
2019-01-28T11:20:16.278Z,174.38
2019-01-28T11:21:16.128Z,174.38
2019-01-28T11:22:16.239Z,180.00
2019-01-28T11:23:16.122Z,174.38
2019-01-28T11:24:16.251Z,174.38
2019-01-28T11:25:16.201Z,196.88
2019-01-28T11:26:16.066Z,196.88
2019-01-28T11:27:16.209Z,208.12
2019-01-28T11:28:16.039Z,196.88
2019-01-28T11:29:16.062Z,196.88
2019-01-28T11:30:16.172Z,202.50
2019-01-28T11:31:16.042Z,185.62
2019-01-28T11:32:16.090Z,196.88
2019-01-28T11:33:16.044Z,230.62
2019-01-28T11:34:16.007Z,230.62
2019-01-28T11:35:16.239Z,225.00
2019-01-28T11:36:16.013Z,213.75
2019-01-28T11:37:16.020Z,219.38
2019-01-28T11:38:16.104Z,219.38
2019-01-28T11:39:16.026Z,241.88
2019-01-28T11:40:16.040Z,247.50
2019-01-28T11:41:15.902Z,253.12
2019-01-28T11:42:15.945Z,253.12
2019-01-28T11:43:15.947Z,241.88
2019-01-28T11:44:15.895Z,247.50
2019-01-28T11:45:16.106Z,258.75
2019-01-28T11:46:16.035Z,236.25
2019-01-28T11:47:15.965Z,219.38
2019-01-28T11:48:15.862Z,208.12
2019-01-28T11:49:15.862Z,208.12
2019-01-28T11:50:15.949Z,202.50
2019-01-28T11:51:15.870Z,219.38
2019-01-28T11:52:15.849Z,191.25
2019-01-28T11:53:15.764Z,185.62
2019-01-28T11:54:15.791Z,191.25
2019-01-28T11:55:15.873Z,191.25
2019-01-28T11:56:16.580Z,219.38
2019-01-28T11:57:15.744Z,202.50
2019-01-28T11:58:15.712Z,208.12
2019-01-28T11:59:15.722Z,230.62
2019-01-28T12:00:15.802Z,258.75
2019-01-28T12:01:15.682Z,236.25
2019-01-28T12:02:15.666Z,219.38
2019-01-28T12:03:15.665Z,208.12
2019-01-28T12:04:15.641Z,213.75
2019-01-28T12:05:15.631Z,213.75
2019-01-28T12:06:15.650Z,225.00
2019-01-28T12:07:15.618Z,213.75
2019-01-28T12:08:15.600Z,213.75
2019-01-28T12:09:15.589Z,213.75
2019-01-28T12:10:15.595Z,196.88
2019-01-28T12:11:15.592Z,202.50
2019-01-28T12:12:15.561Z,196.88
2019-01-28T12:13:15.545Z,202.50
2019-01-28T12:14:15.529Z,191.25
2019-01-28T12:15:15.527Z,180.00
2019-01-28T12:16:15.533Z,168.75
2019-01-28T12:17:15.519Z,168.75
2019-01-28T12:18:15.497Z,196.88
2019-01-28T12:19:15.490Z,213.75
2019-01-28T12:20:15.477Z,191.25
2019-01-28T12:21:15.489Z,168.75
2019-01-28T12:22:15.471Z,185.62
2019-01-28T12:23:15.446Z,180.00
2019-01-28T12:24:15.425Z,163.12
2019-01-28T12:25:15.429Z,185.62
2019-01-28T12:26:15.439Z,230.62
2019-01-28T12:27:15.392Z,202.50
2019-01-28T12:28:15.379Z,208.12
2019-01-28T12:29:15.387Z,225.00
2019-01-28T12:30:15.361Z,191.25
2019-01-28T12:31:15.371Z,196.88
2019-01-28T12:32:15.342Z,185.62
2019-01-28T12:33:15.331Z,196.88
2019-01-28T12:34:15.591Z,151.88
2019-01-28T12:35:15.303Z,140.62
2019-01-28T12:36:15.327Z,140.62
2019-01-28T12:37:15.282Z,185.62
2019-01-28T12:38:15.270Z,151.88
2019-01-28T12:39:15.259Z,151.88
2019-01-28T12:40:15.252Z,174.38
2019-01-28T12:41:17.454Z,140.62
2019-01-28T12:42:15.238Z,118.12
2019-01-28T12:43:15.217Z,112.50
2019-01-28T12:44:15.209Z,112.50
2019-01-28T12:45:15.226Z,106.88
2019-01-28T12:46:15.218Z,118.12
2019-01-28T12:47:15.176Z,123.75
2019-01-28T12:48:15.162Z,118.12
2019-01-28T12:49:21.937Z,112.50
2019-01-28T12:50:16.160Z,101.25
2019-01-28T12:51:15.151Z,101.25
2019-01-28T12:52:15.136Z,112.50
2019-01-28T12:53:15.110Z,112.50
2019-01-28T12:54:15.110Z,123.75
2019-01-28T12:55:15.096Z,118.12
2019-01-28T12:56:15.114Z,129.38
2019-01-28T12:57:15.076Z,123.75
2019-01-28T12:58:15.057Z,135.00
2019-01-28T12:59:15.043Z,135.00
2019-01-28T13:00:15.045Z,151.88